createdAt,value
2018-12-25T00:02:09.152Z,13.60
2018-12-25T00:04:50.528Z,13.60
2018-12-25T00:07:31.281Z,13.40
2018-12-25T00:10:12.074Z,13.60
2018-12-25T00:12:51.685Z,13.60
2018-12-25T00:30:42.560Z,13.60
2018-12-25T00:48:39.091Z,13.30
2018-12-25T00:51:29.480Z,13.70
2018-12-25T00:57:08.133Z,13.20
2018-12-25T00:59:49.747Z,13.50
2018-12-25T01:05:39.665Z,13.60
2018-12-25T01:08:21.364Z,13.50
2018-12-25T01:11:02.871Z,13.50
2018-12-25T01:13:43.564Z,13.60
2018-12-25T01:16:25.030Z,13.60
2018-12-25T01:19:06.175Z,13.60
2018-12-25T01:21:47.717Z,13.60
2018-12-25T01:24:28.548Z,13.60
2018-12-25T01:30:14.708Z,13.60
2018-12-25T01:32:56.287Z,13.60
2018-12-25T01:35:37.543Z,13.60
2018-12-25T01:38:19.013Z,13.60
2018-12-25T01:41:01.249Z,13.60
2018-12-25T01:43:42.424Z,13.60
2018-12-25T01:46:23.777Z,13.60
2018-12-25T01:49:05.398Z,13.50
2018-12-25T01:51:46.184Z,13.50
2018-12-25T01:54:27.819Z,13.50
2018-12-25T02:00:14.424Z,13.60
2018-12-25T02:06:00.115Z,13.50
2018-12-25T02:08:41.440Z,13.60
2018-12-25T02:11:23.009Z,13.60
2018-12-25T02:14:04.701Z,13.50
2018-12-25T02:16:45.838Z,13.40
2018-12-25T02:19:26.659Z,13.50
2018-12-25T02:22:07.367Z,13.50
2018-12-25T02:24:48.864Z,13.50
2018-12-25T02:27:30.391Z,13.30
2018-12-25T02:30:12.001Z,13.60
2018-12-25T02:32:53.674Z,13.60
2018-12-25T02:35:35.173Z,13.50
2018-12-25T02:38:16.725Z,13.60
2018-12-25T02:40:56.336Z,13.20
2018-12-25T02:49:54.648Z,13.50
2018-12-25T02:58:40.198Z,13.50
2018-12-25T03:01:09.349Z,13.50
2018-12-25T03:03:38.447Z,13.50
2018-12-25T03:06:07.708Z,13.50
2018-12-25T03:08:36.844Z,13.50
2018-12-25T03:11:06.012Z,13.50
2018-12-25T03:13:35.055Z,13.50
2018-12-25T03:16:04.141Z,13.50
2018-12-25T03:18:33.280Z,13.50
2018-12-25T03:21:02.363Z,13.50
2018-12-25T03:23:31.420Z,13.50
2018-12-25T03:26:00.960Z,13.60
2018-12-25T03:28:30.467Z,13.50
2018-12-25T03:30:59.635Z,13.50
2018-12-25T03:33:28.853Z,13.50
2018-12-25T03:35:57.985Z,13.50
2018-12-25T03:38:27.117Z,13.50
2018-12-25T03:40:56.243Z,13.50
2018-12-25T03:43:25.409Z,13.50
2018-12-25T03:45:54.566Z,13.50
2018-12-25T03:48:23.567Z,13.50
2018-12-25T03:50:52.681Z,13.40
2018-12-25T03:53:21.694Z,13.50
2018-12-25T03:55:50.875Z,13.50
2018-12-25T03:58:19.947Z,13.50
2018-12-25T04:00:49.074Z,13.50
2018-12-25T04:03:18.129Z,13.50
2018-12-25T04:05:47.264Z,13.50
2018-12-25T04:08:16.500Z,13.40
2018-12-25T04:10:45.580Z,13.50
2018-12-25T04:13:14.598Z,13.50
2018-12-25T04:15:43.758Z,13.60
2018-12-25T04:18:13.001Z,13.50
2018-12-25T04:20:42.118Z,13.50
2018-12-25T04:23:11.287Z,13.40
2018-12-25T04:25:40.376Z,13.40
2018-12-25T04:28:09.551Z,13.40
2018-12-25T04:30:38.617Z,13.40
2018-12-25T04:33:07.759Z,13.40
2018-12-25T04:35:36.783Z,13.40
2018-12-25T04:38:05.944Z,13.40
2018-12-25T04:40:35.070Z,13.40
2018-12-25T04:43:04.205Z,13.40
2018-12-25T04:45:33.357Z,13.40
2018-12-25T04:48:02.468Z,13.50
2018-12-25T04:50:31.545Z,13.50
2018-12-25T04:53:00.681Z,13.40
2018-12-25T04:55:29.876Z,13.50
2018-12-25T04:57:58.889Z,13.40
2018-12-25T05:00:27.966Z,13.50
2018-12-25T05:02:57.048Z,13.50
2018-12-25T05:05:26.128Z,13.40
2018-12-25T05:07:55.290Z,13.40
2018-12-25T05:10:24.392Z,13.50
2018-12-25T05:12:53.614Z,13.50
2018-12-25T05:15:22.720Z,13.40
2018-12-25T05:17:51.871Z,13.40
2018-12-25T05:20:20.966Z,13.40
2018-12-25T05:22:50.072Z,13.40
2018-12-25T05:25:19.208Z,13.40
2018-12-25T05:27:48.311Z,13.40
2018-12-25T05:30:17.372Z,13.40
2018-12-25T05:32:46.443Z,13.40
2018-12-25T05:35:15.546Z,13.40
2018-12-25T05:37:44.528Z,13.40
2018-12-25T05:40:13.693Z,13.40
2018-12-25T05:42:42.948Z,13.40
2018-12-25T05:45:12.006Z,13.40
2018-12-25T05:47:41.076Z,13.40
2018-12-25T05:50:13.013Z,13.40
2018-12-25T05:52:42.191Z,13.40
2018-12-25T05:55:11.270Z,13.40
2018-12-25T05:57:40.297Z,13.30
2018-12-25T06:00:09.646Z,13.40
2018-12-25T06:02:38.646Z,13.40
2018-12-25T06:05:07.735Z,13.40
2018-12-25T06:07:36.887Z,13.30
2018-12-25T06:10:06.027Z,13.40
2018-12-25T06:12:35.121Z,13.40
2018-12-25T06:15:04.126Z,13.30
2018-12-25T06:17:33.284Z,13.30
2018-12-25T06:20:02.446Z,13.40
2018-12-25T06:22:31.558Z,13.40
2018-12-25T06:25:00.696Z,13.40
2018-12-25T06:27:29.805Z,13.40
2018-12-25T06:29:59.014Z,13.30
2018-12-25T06:32:28.421Z,13.40
2018-12-25T06:34:57.785Z,13.30
2018-12-25T06:37:27.298Z,13.30
2018-12-25T06:39:56.478Z,13.40
2018-12-25T06:42:25.568Z,13.40
2018-12-25T06:44:54.637Z,13.30
2018-12-25T06:47:23.727Z,13.40
2018-12-25T06:49:52.797Z,13.30
2018-12-25T06:52:21.909Z,13.30
2018-12-25T06:54:50.985Z,13.40
2018-12-25T06:57:20.213Z,13.30
2018-12-25T06:59:49.380Z,13.30
2018-12-25T07:02:18.579Z,13.30
2018-12-25T07:04:47.638Z,13.30
2018-12-25T07:07:16.799Z,13.30
2018-12-25T07:09:45.923Z,13.30
2018-12-25T07:12:18.084Z,13.40
2018-12-25T07:14:47.505Z,13.30
2018-12-25T07:17:16.584Z,13.30
2018-12-25T07:19:45.668Z,13.40
2018-12-25T07:22:14.805Z,13.30
2018-12-25T07:24:44.115Z,13.30
2018-12-25T07:27:13.203Z,13.30
2018-12-25T07:29:42.347Z,13.30
2018-12-25T07:32:11.335Z,13.30
2018-12-25T07:34:40.598Z,13.30
2018-12-25T07:37:09.668Z,13.30
2018-12-25T07:39:38.796Z,13.40
2018-12-25T07:42:08.214Z,13.30
2018-12-25T07:44:37.382Z,13.30
2018-12-25T07:47:06.471Z,13.30
2018-12-25T07:49:35.446Z,13.30
2018-12-25T07:52:04.467Z,13.30
2018-12-25T07:54:33.749Z,13.30
2018-12-25T07:57:03.138Z,13.30
2018-12-25T07:59:32.280Z,13.30
2018-12-25T08:02:01.382Z,13.30
2018-12-25T08:04:30.452Z,13.30
2018-12-25T08:06:59.537Z,13.30
2018-12-25T08:09:28.703Z,13.20
2018-12-25T08:11:57.778Z,13.30
2018-12-25T08:14:26.832Z,13.30
2018-12-25T08:16:59.325Z,13.30
2018-12-25T08:19:28.609Z,13.20
2018-12-25T08:21:57.782Z,13.30
2018-12-25T08:24:26.799Z,13.30
2018-12-25T08:26:55.936Z,13.30
2018-12-25T08:29:25.024Z,13.30
2018-12-25T08:31:54.265Z,13.30
2018-12-25T08:34:26.389Z,13.30
2018-12-25T08:36:55.386Z,13.30
2018-12-25T08:39:24.487Z,13.30
2018-12-25T08:41:53.729Z,13.20
2018-12-25T08:44:22.723Z,13.30
2018-12-25T08:46:52.102Z,13.30
2018-12-25T08:49:23.860Z,13.30
2018-12-25T08:51:53.090Z,13.20
2018-12-25T08:54:22.329Z,13.30
2018-12-25T08:56:51.505Z,13.30
2018-12-25T08:59:20.516Z,13.30
2018-12-25T09:01:49.624Z,13.20
2018-12-25T09:04:18.805Z,13.20
2018-12-25T09:06:50.275Z,13.20
2018-12-25T09:09:19.633Z,13.20
2018-12-25T09:11:49.844Z,13.20
2018-12-25T09:14:19.538Z,13.20
2018-12-25T09:16:51.429Z,13.30
2018-12-25T09:19:20.444Z,13.30
2018-12-25T09:21:49.736Z,13.20
2018-12-25T09:24:19.084Z,13.30
2018-12-25T09:26:58.612Z,13.60
2018-12-25T09:29:27.720Z,14.10
2018-12-25T09:31:57.769Z,14.50
2018-12-25T09:34:36.367Z,15.00
2018-12-25T09:37:05.503Z,15.30
2018-12-25T09:39:34.571Z,15.80
2018-12-25T09:42:03.799Z,16.10
2018-12-25T09:44:35.378Z,16.40
2018-12-25T09:47:04.465Z,16.70
2018-12-25T09:49:36.864Z,16.90
2018-12-25T09:52:09.139Z,17.10
2018-12-25T09:54:44.090Z,17.20
2018-12-25T09:57:16.241Z,17.40
2018-12-25T09:59:48.544Z,17.50
2018-12-25T10:02:19.449Z,17.60
2018-12-25T10:04:48.786Z,17.70
2018-12-25T10:07:23.391Z,17.80
2018-12-25T10:10:00.263Z,17.80
2018-12-25T10:12:29.492Z,17.90
2018-12-25T10:15:01.654Z,18.00
2018-12-25T10:17:31.583Z,18.00
2018-12-25T10:20:04.525Z,18.10
2018-12-25T10:22:52.522Z,18.10
2018-12-25T10:25:24.482Z,18.20
2018-12-25T10:27:53.696Z,18.30
2018-12-25T10:30:22.809Z,18.30
2018-12-25T10:32:53.364Z,18.40
2018-12-25T10:35:25.565Z,18.40
2018-12-25T10:38:03.927Z,18.40
2018-12-25T10:40:33.067Z,18.50
2018-12-25T10:43:03.644Z,18.50
2018-12-25T10:45:32.753Z,18.60
2018-12-25T10:48:01.859Z,18.60
2018-12-25T10:50:31.070Z,18.70
2018-12-25T10:53:00.914Z,18.70
2018-12-25T10:55:30.178Z,18.70
2018-12-25T10:58:04.568Z,18.80
2018-12-25T11:00:41.578Z,18.70
2018-12-25T11:03:10.889Z,18.80
2018-12-25T11:05:40.360Z,18.80
2018-12-25T11:08:09.932Z,18.90
2018-12-25T11:10:51.196Z,18.90
2018-12-25T11:13:19.346Z,18.90
2018-12-25T11:15:48.446Z,18.90
2018-12-25T11:18:18.078Z,19.00
2018-12-25T11:20:47.684Z,19.10
2018-12-25T11:23:16.840Z,19.10
2018-12-25T11:25:46.193Z,19.10
2018-12-25T11:28:15.395Z,19.10
2018-12-25T11:30:44.565Z,19.10
2018-12-25T11:33:14.120Z,19.20
2018-12-25T11:35:43.236Z,19.20
2018-12-25T11:38:12.433Z,19.30
2018-12-25T11:40:41.457Z,19.30
2018-12-25T11:43:10.687Z,19.30
2018-12-25T11:45:39.837Z,19.30
2018-12-25T11:48:11.189Z,19.30
2018-12-25T11:50:40.310Z,19.40
2018-12-25T11:53:09.428Z,19.40
2018-12-25T11:55:38.580Z,19.40
2018-12-25T11:58:07.632Z,19.40
2018-12-25T12:00:36.598Z,19.50
2018-12-25T12:03:07.168Z,19.50
2018-12-25T12:05:36.358Z,19.50
2018-12-25T12:08:05.708Z,19.50
2018-12-25T12:10:34.739Z,19.60
2018-12-25T12:13:03.928Z,19.60
2018-12-25T12:15:33.172Z,19.60
2018-12-25T12:18:02.629Z,19.60
2018-12-25T12:20:31.842Z,19.60
2018-12-25T12:23:01.179Z,19.60
2018-12-25T12:25:30.242Z,19.70
2018-12-25T12:27:59.518Z,19.70
2018-12-25T12:30:28.869Z,19.70
2018-12-25T12:32:57.930Z,19.70
2018-12-25T12:35:29.127Z,19.70
2018-12-25T12:37:58.233Z,19.70
2018-12-25T12:40:27.410Z,19.80
2018-12-25T12:42:57.513Z,19.80
2018-12-25T12:45:26.665Z,19.70
2018-12-25T12:47:55.851Z,19.80
2018-12-25T12:50:25.082Z,19.70
2018-12-25T12:52:54.289Z,19.80
2018-12-25T12:55:23.481Z,19.80
2018-12-25T12:57:53.703Z,19.80
2018-12-25T13:00:22.877Z,19.90
2018-12-25T13:02:52.296Z,19.80
2018-12-25T13:05:21.661Z,19.90
2018-12-25T13:07:57.084Z,19.90
2018-12-25T13:10:26.414Z,19.90
2018-12-25T13:12:56.890Z,19.90
2018-12-25T13:15:29.272Z,19.90
2018-12-25T13:18:00.456Z,20.00
2018-12-25T13:20:29.510Z,20.00
2018-12-25T13:22:59.150Z,20.00
2018-12-25T13:25:28.468Z,19.90
2018-12-25T13:27:57.590Z,20.00
2018-12-25T13:30:26.752Z,20.00
2018-12-25T13:32:55.941Z,20.00
2018-12-25T13:35:25.266Z,20.00
2018-12-25T13:37:54.403Z,20.10
2018-12-25T13:40:23.394Z,20.10
2018-12-25T13:42:52.892Z,20.10
2018-12-25T13:45:26.470Z,20.00
2018-12-25T13:47:57.908Z,20.10
2018-12-25T13:50:29.796Z,20.10
2018-12-25T13:53:02.902Z,20.10
2018-12-25T13:55:31.456Z,20.10
2018-12-25T13:58:00.491Z,20.20
2018-12-25T14:00:29.810Z,20.20
2018-12-25T14:02:58.980Z,20.20
2018-12-25T14:05:28.341Z,20.20
2018-12-25T14:07:57.794Z,20.20
2018-12-25T14:10:28.935Z,20.20
2018-12-25T14:12:58.116Z,20.20
2018-12-25T14:15:31.495Z,20.20
2018-12-25T14:18:06.716Z,20.20
2018-12-25T14:20:35.921Z,20.20
2018-12-25T14:23:11.143Z,20.20
2018-12-25T14:25:35.862Z,20.30
2018-12-25T14:28:05.025Z,20.30
2018-12-25T14:30:34.157Z,20.30
2018-12-25T14:33:05.236Z,20.30
2018-12-25T14:35:34.774Z,20.30
2018-12-25T14:38:03.838Z,20.30
2018-12-25T14:40:33.016Z,20.40
2018-12-25T14:43:02.115Z,20.40
2018-12-25T14:45:31.263Z,20.40
2018-12-25T14:48:00.736Z,20.40
2018-12-25T14:50:29.988Z,20.40
2018-12-25T14:52:59.149Z,20.50
2018-12-25T14:55:28.337Z,20.50
2018-12-25T14:57:57.405Z,20.50
2018-12-25T15:00:26.565Z,20.50
2018-12-25T15:02:57.375Z,20.50
2018-12-25T15:05:33.127Z,20.50
2018-12-25T15:08:07.079Z,20.50
2018-12-25T15:10:36.190Z,20.50
2018-12-25T15:13:05.969Z,20.60
2018-12-25T15:15:43.927Z,20.60
2018-12-25T15:18:14.174Z,20.60
2018-12-25T15:20:43.533Z,20.50
2018-12-25T15:23:27.989Z,20.60
2018-12-25T15:25:51.682Z,20.60
2018-12-25T15:28:20.929Z,20.60
2018-12-25T15:31:00.458Z,20.60
2018-12-25T15:33:29.624Z,20.60
2018-12-25T15:35:58.823Z,20.50
2018-12-25T15:38:28.024Z,20.40
2018-12-25T15:40:57.374Z,20.20
2018-12-25T15:43:27.535Z,19.90
2018-12-25T15:46:06.532Z,19.60
2018-12-25T15:49:52.763Z,19.00
2018-12-25T15:53:39.437Z,18.50
2018-12-25T15:56:08.853Z,17.80
2018-12-25T15:58:39.449Z,17.90
2018-12-25T16:01:09.055Z,17.60
2018-12-25T16:03:38.235Z,17.00
2018-12-25T16:06:07.833Z,17.00
2018-12-25T16:08:37.176Z,16.90
2018-12-25T16:11:06.313Z,16.90
2018-12-25T16:13:35.384Z,17.10
2018-12-25T16:16:04.654Z,16.90
2018-12-25T16:18:33.719Z,17.00
2018-12-25T16:21:06.682Z,16.90
2018-12-25T16:23:35.860Z,16.90
2018-12-25T16:26:05.178Z,16.90
2018-12-25T16:28:34.457Z,17.00
2018-12-25T16:31:03.543Z,16.80
2018-12-25T16:33:35.838Z,16.90
2018-12-25T16:36:05.089Z,16.50
2018-12-25T16:38:40.304Z,16.40
2018-12-25T16:41:09.433Z,16.30
2018-12-25T16:43:38.819Z,16.20
2018-12-25T16:46:09.770Z,16.00
2018-12-25T16:48:39.016Z,16.00
2018-12-25T16:51:08.261Z,15.80
2018-12-25T16:53:37.568Z,15.80
2018-12-25T16:56:10.060Z,15.80
2018-12-25T16:58:39.258Z,15.70
2018-12-25T17:01:10.660Z,15.60
2018-12-25T17:03:58.235Z,15.60
2018-12-25T17:06:27.400Z,15.60
2018-12-25T17:08:56.795Z,15.50
2018-12-25T17:11:25.987Z,15.50
2018-12-25T17:13:55.590Z,15.50
2018-12-25T17:16:24.674Z,15.50
2018-12-25T17:18:54.337Z,15.50
2018-12-25T17:21:23.401Z,15.40
2018-12-25T17:24:01.994Z,15.40
2018-12-25T17:26:24.321Z,15.40
2018-12-25T17:28:53.556Z,15.40
2018-12-25T17:31:22.803Z,15.30
2018-12-25T17:33:51.873Z,15.30
2018-12-25T17:36:21.304Z,15.20
2018-12-25T17:38:50.419Z,15.20
2018-12-25T17:41:19.518Z,15.30
2018-12-25T17:43:48.904Z,15.20
2018-12-25T17:46:17.943Z,15.30
2018-12-25T17:48:47.216Z,15.30
2018-12-25T17:51:19.267Z,15.20
2018-12-25T17:54:00.073Z,15.20
2018-12-25T17:56:37.560Z,15.20
2018-12-25T17:59:15.100Z,15.10
2018-12-25T18:02:12.867Z,15.10
2018-12-25T18:04:42.100Z,15.10
2018-12-25T18:07:11.988Z,15.10
2018-12-25T18:09:41.407Z,15.10
2018-12-25T18:12:10.819Z,15.10
2018-12-25T18:14:40.014Z,15.20
2018-12-25T18:17:09.249Z,15.10
2018-12-25T18:19:38.279Z,15.10
2018-12-25T18:22:07.579Z,15.10
2018-12-25T18:24:37.694Z,14.90
2018-12-25T18:27:06.895Z,15.00
2018-12-25T18:29:36.141Z,15.00
2018-12-25T18:32:06.464Z,15.10
2018-12-25T18:34:35.689Z,15.00
2018-12-25T18:37:16.694Z,14.90
2018-12-25T18:39:57.575Z,15.10
2018-12-25T18:42:27.813Z,14.90
2018-12-25T18:44:56.966Z,15.00
2018-12-25T18:47:26.187Z,15.00
2018-12-25T18:49:55.677Z,15.00
2018-12-25T18:52:24.989Z,14.90
2018-12-25T18:54:54.336Z,14.80
2018-12-25T18:57:24.705Z,14.90
2018-12-25T18:59:54.205Z,14.80
2018-12-25T19:02:23.548Z,14.80
2018-12-25T19:04:52.626Z,14.90
2018-12-25T19:07:21.809Z,14.80
2018-12-25T19:09:51.228Z,14.80
2018-12-25T19:12:20.707Z,14.80
2018-12-25T19:15:19.980Z,14.80
2018-12-25T19:18:09.410Z,14.80
2018-12-25T19:20:38.824Z,14.80
2018-12-25T19:23:08.079Z,14.80
2018-12-25T19:25:40.119Z,14.80
2018-12-25T19:28:09.355Z,14.80
2018-12-25T19:30:40.804Z,14.80
2018-12-25T19:33:10.025Z,14.80
2018-12-25T19:35:56.121Z,14.80
2018-12-25T19:38:25.176Z,14.80
2018-12-25T19:40:55.228Z,14.70
2018-12-25T19:43:24.615Z,14.80
2018-12-25T19:45:53.723Z,14.70
2018-12-25T19:48:22.804Z,14.70
2018-12-25T19:50:51.936Z,14.70
2018-12-25T19:53:21.198Z,14.70
2018-12-25T19:55:50.366Z,14.70
2018-12-25T19:58:19.472Z,14.70
2018-12-25T20:00:48.814Z,14.70
2018-12-25T20:03:51.014Z,14.60
2018-12-25T20:07:05.252Z,14.60
2018-12-25T20:10:11.673Z,14.60
2018-12-25T20:13:37.645Z,14.60
2018-12-25T20:16:57.432Z,14.60
2018-12-25T20:20:32.150Z,14.50
2018-12-25T20:23:37.297Z,14.50
2018-12-25T20:26:35.867Z,14.50
2018-12-25T20:29:48.397Z,14.50
2018-12-25T20:32:59.408Z,14.50
2018-12-25T20:36:01.312Z,14.50
2018-12-25T20:39:06.165Z,14.50
2018-12-25T20:42:12.733Z,14.40
2018-12-25T20:45:41.119Z,14.40
2018-12-25T20:49:01.750Z,14.40
2018-12-25T20:52:10.809Z,14.40
2018-12-25T20:55:18.344Z,14.40
2018-12-25T20:58:39.447Z,14.40
2018-12-25T21:01:35.985Z,14.40
2018-12-25T21:04:54.659Z,14.30
2018-12-25T21:08:00.530Z,14.30
2018-12-25T21:11:04.839Z,14.30
2018-12-25T21:14:03.409Z,14.40
2018-12-25T21:17:21.773Z,14.30
2018-12-25T21:20:27.020Z,14.30
2018-12-25T21:23:32.447Z,14.30
2018-12-25T21:26:37.460Z,14.30
2018-12-25T21:29:06.809Z,14.30
2018-12-25T21:31:36.099Z,14.30
2018-12-25T21:34:05.572Z,14.40
2018-12-25T21:36:34.552Z,14.30
2018-12-25T21:42:45.082Z,14.30
2018-12-25T21:44:47.780Z,14.30
2018-12-25T21:51:20.736Z,14.30
2018-12-25T22:00:24.742Z,14.30
2018-12-25T22:09:27.541Z,14.30
2018-12-25T22:12:08.827Z,14.30
2018-12-25T22:14:49.617Z,14.30
2018-12-25T22:17:22.804Z,14.20
2018-12-25T22:20:30.680Z,14.20
2018-12-25T22:29:06.371Z,13.80
2018-12-25T22:34:50.090Z,14.20
2018-12-25T22:41:05.833Z,14.10
2018-12-25T22:58:48.399Z,14.20
2018-12-25T23:26:49.281Z,14.10
2018-12-25T23:47:10.496Z,14.10
2018-12-25T23:56:58.538Z,14.00
